sensor_id;sensor_type;location;lat;lon;timestamp;temperature;humidity
17726;DHT22;8983;53.156;17.960;2022-07-23T00:00:56;21.60;99.90
17726;DHT22;8983;53.156;17.960;2022-07-23T00:03:25;21.60;99.90
17726;DHT22;8983;53.156;17.960;2022-07-23T00:05:53;21.60;99.90
17726;DHT22;8983;53.156;17.960;2022-07-23T00:08:21;21.50;99.90
17726;DHT22;8983;53.156;17.960;2022-07-23T00:10:49;21.50;99.90
17726;DHT22;8983;53.156;17.960;2022-07-23T00:13:17;21.50;99.90
17726;DHT22;8983;53.156;17.960;2022-07-23T00:15:45;21.50;99.90
17726;DHT22;8983;53.156;17.960;2022-07-23T00:18:13;21.50;99.90
17726;DHT22;8983;53.156;17.960;2022-07-23T00:20:43;21.50;99.90
17726;DHT22;8983;53.156;17.960;2022-07-23T00:23:11;21.40;99.90
17726;DHT22;8983;53.156;17.960;2022-07-23T00:25:39;21.40;99.90
17726;DHT22;8983;53.156;17.960;2022-07-23T00:28:07;21.40;99.90
17726;DHT22;8983;53.156;17.960;2022-07-23T00:30:35;21.30;99.90
17726;DHT22;8983;53.156;17.960;2022-07-23T00:33:05;21.30;99.90
17726;DHT22;8983;53.156;17.960;2022-07-23T00:35:36;21.20;99.90
17726;DHT22;8983;53.156;17.960;2022-07-23T00:38:08;21.20;99.90
17726;DHT22;8983;53.156;17.960;2022-07-23T00:40:36;21.10;99.90
17726;DHT22;8983;53.156;17.960;2022-07-23T00:43:05;21.10;99.90
17726;DHT22;8983;53.156;17.960;2022-07-23T00:45:33;21.00;99.90
17726;DHT22;8983;53.156;17.960;2022-07-23T00:48:02;21.00;99.90
17726;DHT22;8983;53.156;17.960;2022-07-23T00:50:30;21.00;99.90
17726;DHT22;8983;53.156;17.960;2022-07-23T00:52:58;21.00;99.90
17726;DHT22;8983;53.156;17.960;2022-07-23T00:55:28;21.00;99.90
17726;DHT22;8983;53.156;17.960;2022-07-23T00:57:56;21.00;99.90
17726;DHT22;8983;53.156;17.960;2022-07-23T01:00:25;20.90;99.90
17726;DHT22;8983;53.156;17.960;2022-07-23T01:02:53;20.90;99.90
17726;DHT22;8983;53.156;17.960;2022-07-23T01:05:21;20.90;99.90
17726;DHT22;8983;53.156;17.960;2022-07-23T01:07:50;20.90;99.90
17726;DHT22;8983;53.156;17.960;2022-07-23T01:10:22;20.80;99.90
17726;DHT22;8983;53.156;17.960;2022-07-23T01:13:01;20.70;99.90
17726;DHT22;8983;53.156;17.960;2022-07-23T01:15:30;20.70;99.90
17726;DHT22;8983;53.156;17.960;2022-07-23T01:17:59;20.70;99.90
17726;DHT22;8983;53.156;17.960;2022-07-23T01:20:27;20.70;99.90
17726;DHT22;8983;53.156;17.960;2022-07-23T01:22:56;20.60;99.90
17726;DHT22;8983;53.156;17.960;2022-07-23T01:25:25;20.60;99.90
17726;DHT22;8983;53.156;17.960;2022-07-23T01:27:53;20.60;99.90
17726;DHT22;8983;53.156;17.960;2022-07-23T01:30:21;20.50;99.90
17726;DHT22;8983;53.156;17.960;2022-07-23T01:32:50;20.40;99.90
17726;DHT22;8983;53.156;17.960;2022-07-23T01:35:18;20.40;99.90
17726;DHT22;8983;53.156;17.960;2022-07-23T01:37:46;20.40;99.90
17726;DHT22;8983;53.156;17.960;2022-07-23T01:40:15;20.30;99.90
17726;DHT22;8983;53.156;17.960;2022-07-23T01:42:44;20.40;99.90
17726;DHT22;8983;53.156;17.960;2022-07-23T01:45:13;20.40;99.90
17726;DHT22;8983;53.156;17.960;2022-07-23T01:47:41;20.30;99.90
17726;DHT22;8983;53.156;17.960;2022-07-23T01:50:09;20.30;99.90
17726;DHT22;8983;53.156;17.960;2022-07-23T01:52:37;20.30;99.90
17726;DHT22;8983;53.156;17.960;2022-07-23T01:55:07;20.30;99.90
17726;DHT22;8983;53.156;17.960;2022-07-23T01:57:45;20.30;99.90
17726;DHT22;8983;53.156;17.960;2022-07-23T02:00:13;20.30;99.90
17726;DHT22;8983;53.156;17.960;2022-07-23T02:02:41;20.20;99.90
17726;DHT22;8983;53.156;17.960;2022-07-23T02:05:09;20.10;99.90
17726;DHT22;8983;53.156;17.960;2022-07-23T02:07:37;20.10;99.90
17726;DHT22;8983;53.156;17.960;2022-07-23T02:10:07;20.00;99.90
17726;DHT22;8983;53.156;17.960;2022-07-23T02:12:35;20.00;99.90
17726;DHT22;8983;53.156;17.960;2022-07-23T02:15:05;20.00;99.90
17726;DHT22;8983;53.156;17.960;2022-07-23T02:17:36;20.00;99.90
17726;DHT22;8983;53.156;17.960;2022-07-23T02:20:05;19.90;99.90
17726;DHT22;8983;53.156;17.960;2022-07-23T02:22:34;19.90;99.90
17726;DHT22;8983;53.156;17.960;2022-07-23T02:25:03;19.80;99.90
17726;DHT22;8983;53.156;17.960;2022-07-23T02:27:31;19.70;99.90
17726;DHT22;8983;53.156;17.960;2022-07-23T02:29:59;19.70;99.90
17726;DHT22;8983;53.156;17.960;2022-07-23T02:32:29;19.80;99.90
17726;DHT22;8983;53.156;17.960;2022-07-23T02:34:57;19.80;99.90
17726;DHT22;8983;53.156;17.960;2022-07-23T02:37:25;19.80;99.90
17726;DHT22;8983;53.156;17.960;2022-07-23T02:39:53;19.70;99.90
17726;DHT22;8983;53.156;17.960;2022-07-23T02:42:21;19.70;99.90
17726;DHT22;8983;53.156;17.960;2022-07-23T02:44:50;19.70;99.90
17726;DHT22;8983;53.156;17.960;2022-07-23T02:47:18;19.70;99.90
17726;DHT22;8983;53.156;17.960;2022-07-23T02:49:48;19.70;99.90
17726;DHT22;8983;53.156;17.960;2022-07-23T02:52:16;19.70;99.90
17726;DHT22;8983;53.156;17.960;2022-07-23T02:54:44;19.80;99.90
17726;DHT22;8983;53.156;17.960;2022-07-23T02:57:12;19.70;99.90
17726;DHT22;8983;53.156;17.960;2022-07-23T02:59:40;19.70;99.90
17726;DHT22;8983;53.156;17.960;2022-07-23T03:02:08;19.60;99.90
17726;DHT22;8983;53.156;17.960;2022-07-23T03:04:36;19.60;99.90
17726;DHT22;8983;53.156;17.960;2022-07-23T03:07:05;19.60;99.90
17726;DHT22;8983;53.156;17.960;2022-07-23T03:09:33;19.60;99.90
17726;DHT22;8983;53.156;17.960;2022-07-23T03:12:02;19.60;99.90
17726;DHT22;8983;53.156;17.960;2022-07-23T03:14:30;19.50;99.90
17726;DHT22;8983;53.156;17.960;2022-07-23T03:16:58;19.50;99.90
17726;DHT22;8983;53.156;17.960;2022-07-23T03:19:27;19.50;99.90
17726;DHT22;8983;53.156;17.960;2022-07-23T03:21:55;19.50;99.90
17726;DHT22;8983;53.156;17.960;2022-07-23T03:24:24;19.50;99.90
17726;DHT22;8983;53.156;17.960;2022-07-23T03:27:12;19.50;99.90
17726;DHT22;8983;53.156;17.960;2022-07-23T03:29:40;19.40;99.90
17726;DHT22;8983;53.156;17.960;2022-07-23T03:32:08;19.40;99.90
17726;DHT22;8983;53.156;17.960;2022-07-23T03:34:37;19.40;99.90
17726;DHT22;8983;53.156;17.960;2022-07-23T03:37:06;19.50;99.90
17726;DHT22;8983;53.156;17.960;2022-07-23T03:39:35;19.50;99.90
17726;DHT22;8983;53.156;17.960;2022-07-23T03:42:03;19.50;99.90
17726;DHT22;8983;53.156;17.960;2022-07-23T03:44:32;19.50;99.90
17726;DHT22;8983;53.156;17.960;2022-07-23T03:47:00;19.50;99.90
17726;DHT22;8983;53.156;17.960;2022-07-23T03:49:31;19.50;99.90
17726;DHT22;8983;53.156;17.960;2022-07-23T03:51:59;19.50;99.90
17726;DHT22;8983;53.156;17.960;2022-07-23T03:54:27;19.50;99.90
17726;DHT22;8983;53.156;17.960;2022-07-23T03:56:57;19.50;99.90
17726;DHT22;8983;53.156;17.960;2022-07-23T03:59:25;19.50;99.90
17726;DHT22;8983;53.156;17.960;2022-07-23T04:01:53;19.50;99.90
17726;DHT22;8983;53.156;17.960;2022-07-23T04:04:21;19.40;99.90
17726;DHT22;8983;53.156;17.960;2022-07-23T04:06:49;19.40;99.90
17726;DHT22;8983;53.156;17.960;2022-07-23T04:09:17;19.50;99.90
17726;DHT22;8983;53.156;17.960;2022-07-23T04:11:46;19.50;99.90
17726;DHT22;8983;53.156;17.960;2022-07-23T04:14:16;19.50;99.90
17726;DHT22;8983;53.156;17.960;2022-07-23T04:16:44;19.60;99.90
17726;DHT22;8983;53.156;17.960;2022-07-23T04:19:12;19.60;99.90
17726;DHT22;8983;53.156;17.960;2022-07-23T04:21:40;19.70;99.90
17726;DHT22;8983;53.156;17.960;2022-07-23T04:24:08;19.70;99.90
17726;DHT22;8983;53.156;17.960;2022-07-23T04:26:36;19.80;99.90
17726;DHT22;8983;53.156;17.960;2022-07-23T04:29:04;19.80;99.90
17726;DHT22;8983;53.156;17.960;2022-07-23T04:31:33;19.80;99.90
17726;DHT22;8983;53.156;17.960;2022-07-23T04:34:03;19.80;99.90
17726;DHT22;8983;53.156;17.960;2022-07-23T04:36:31;19.80;99.90
17726;DHT22;8983;53.156;17.960;2022-07-23T04:38:59;19.90;99.90
17726;DHT22;8983;53.156;17.960;2022-07-23T04:41:28;19.90;99.90
17726;DHT22;8983;53.156;17.960;2022-07-23T04:43:56;19.90;99.90
17726;DHT22;8983;53.156;17.960;2022-07-23T04:46:24;20.00;99.90
17726;DHT22;8983;53.156;17.960;2022-07-23T04:48:54;20.00;99.90
17726;DHT22;8983;53.156;17.960;2022-07-23T04:51:22;20.00;99.90
17726;DHT22;8983;53.156;17.960;2022-07-23T04:53:50;20.10;99.90
17726;DHT22;8983;53.156;17.960;2022-07-23T04:56:18;20.10;99.90
17726;DHT22;8983;53.156;17.960;2022-07-23T04:58:46;20.20;99.90
17726;DHT22;8983;53.156;17.960;2022-07-23T05:01:14;20.30;99.90
17726;DHT22;8983;53.156;17.960;2022-07-23T05:03:42;20.30;99.90
17726;DHT22;8983;53.156;17.960;2022-07-23T05:06:12;20.40;99.90
17726;DHT22;8983;53.156;17.960;2022-07-23T05:08:40;20.40;99.90
17726;DHT22;8983;53.156;17.960;2022-07-23T05:11:08;20.40;99.90
17726;DHT22;8983;53.156;17.960;2022-07-23T05:13:36;20.50;99.90
17726;DHT22;8983;53.156;17.960;2022-07-23T05:16:04;20.50;99.90
17726;DHT22;8983;53.156;17.960;2022-07-23T05:18:33;20.60;99.90
17726;DHT22;8983;53.156;17.960;2022-07-23T05:21:01;20.60;99.90
17726;DHT22;8983;53.156;17.960;2022-07-23T05:23:30;20.70;99.90
17726;DHT22;8983;53.156;17.960;2022-07-23T05:25:58;20.70;99.90
17726;DHT22;8983;53.156;17.960;2022-07-23T05:28:26;20.70;99.90
17726;DHT22;8983;53.156;17.960;2022-07-23T05:30:54;20.80;99.90
17726;DHT22;8983;53.156;17.960;2022-07-23T05:33:22;20.80;99.90
17726;DHT22;8983;53.156;17.960;2022-07-23T05:35:50;20.80;99.90
17726;DHT22;8983;53.156;17.960;2022-07-23T05:38:18;20.80;99.90
17726;DHT22;8983;53.156;17.960;2022-07-23T05:40:47;20.90;99.90
17726;DHT22;8983;53.156;17.960;2022-07-23T05:43:16;20.80;99.90
17726;DHT22;8983;53.156;17.960;2022-07-23T05:45:44;20.80;99.90
17726;DHT22;8983;53.156;17.960;2022-07-23T05:48:12;20.80;99.90
17726;DHT22;8983;53.156;17.960;2022-07-23T05:50:40;20.80;99.90
17726;DHT22;8983;53.156;17.960;2022-07-23T05:53:08;20.90;99.90
17726;DHT22;8983;53.156;17.960;2022-07-23T05:55:36;20.90;99.90
17726;DHT22;8983;53.156;17.960;2022-07-23T05:58:05;20.90;99.90
17726;DHT22;8983;53.156;17.960;2022-07-23T06:00:33;21.00;99.90
17726;DHT22;8983;53.156;17.960;2022-07-23T06:03:01;21.10;99.90
17726;DHT22;8983;53.156;17.960;2022-07-23T06:05:29;21.20;99.90
17726;DHT22;8983;53.156;17.960;2022-07-23T06:07:58;21.20;99.90
17726;DHT22;8983;53.156;17.960;2022-07-23T06:10:26;21.30;99.90
17726;DHT22;8983;53.156;17.960;2022-07-23T06:12:53;21.40;99.90
17726;DHT22;8983;53.156;17.960;2022-07-23T06:15:29;21.50;99.90
17726;DHT22;8983;53.156;17.960;2022-07-23T06:17:58;21.60;99.90
17726;DHT22;8983;53.156;17.960;2022-07-23T06:20:26;21.70;99.90
17726;DHT22;8983;53.156;17.960;2022-07-23T06:22:54;21.80;99.90
17726;DHT22;8983;53.156;17.960;2022-07-23T06:25:22;21.80;99.90
17726;DHT22;8983;53.156;17.960;2022-07-23T06:27:50;21.90;99.90
17726;DHT22;8983;53.156;17.960;2022-07-23T06:30:18;22.00;99.90
17726;DHT22;8983;53.156;17.960;2022-07-23T06:32:49;22.00;99.90
17726;DHT22;8983;53.156;17.960;2022-07-23T06:35:17;22.10;99.90
17726;DHT22;8983;53.156;17.960;2022-07-23T06:37:45;22.20;99.90
17726;DHT22;8983;53.156;17.960;2022-07-23T06:40:14;22.20;99.90
17726;DHT22;8983;53.156;17.960;2022-07-23T06:42:42;22.30;99.90
17726;DHT22;8983;53.156;17.960;2022-07-23T06:45:10;22.40;99.90
17726;DHT22;8983;53.156;17.960;2022-07-23T06:47:38;22.40;99.90
17726;DHT22;8983;53.156;17.960;2022-07-23T06:50:10;22.50;99.90
17726;DHT22;8983;53.156;17.960;2022-07-23T06:52:38;22.50;99.90
17726;DHT22;8983;53.156;17.960;2022-07-23T06:55:09;22.50;99.90
17726;DHT22;8983;53.156;17.960;2022-07-23T06:57:37;22.50;99.90
17726;DHT22;8983;53.156;17.960;2022-07-23T07:00:06;22.60;99.90
17726;DHT22;8983;53.156;17.960;2022-07-23T07:02:34;22.70;99.90
17726;DHT22;8983;53.156;17.960;2022-07-23T07:05:03;22.70;99.90
17726;DHT22;8983;53.156;17.960;2022-07-23T07:07:34;22.80;99.90
17726;DHT22;8983;53.156;17.960;2022-07-23T07:10:02;22.80;99.90
17726;DHT22;8983;53.156;17.960;2022-07-23T07:12:30;22.90;99.90
17726;DHT22;8983;53.156;17.960;2022-07-23T07:14:59;23.00;99.90
17726;DHT22;8983;53.156;17.960;2022-07-23T07:17:27;23.10;99.90
17726;DHT22;8983;53.156;17.960;2022-07-23T07:19:55;23.10;99.90
17726;DHT22;8983;53.156;17.960;2022-07-23T07:22:23;23.20;99.90
17726;DHT22;8983;53.156;17.960;2022-07-23T07:24:53;23.30;99.90
17726;DHT22;8983;53.156;17.960;2022-07-23T07:27:21;23.40;99.90
17726;DHT22;8983;53.156;17.960;2022-07-23T07:29:49;23.40;99.90
17726;DHT22;8983;53.156;17.960;2022-07-23T07:32:17;23.50;99.90
17726;DHT22;8983;53.156;17.960;2022-07-23T07:35:05;23.50;99.90
17726;DHT22;8983;53.156;17.960;2022-07-23T07:37:34;23.60;99.90
17726;DHT22;8983;53.156;17.960;2022-07-23T07:40:03;23.70;99.90
17726;DHT22;8983;53.156;17.960;2022-07-23T07:42:32;23.80;99.90
17726;DHT22;8983;53.156;17.960;2022-07-23T07:45:00;23.90;99.90
17726;DHT22;8983;53.156;17.960;2022-07-23T07:47:28;23.90;99.90
17726;DHT22;8983;53.156;17.960;2022-07-23T07:49:56;24.00;99.90
17726;DHT22;8983;53.156;17.960;2022-07-23T07:52:24;24.10;99.90
17726;DHT22;8983;53.156;17.960;2022-07-23T07:54:52;24.20;99.90
17726;DHT22;8983;53.156;17.960;2022-07-23T07:57:21;24.20;99.90
17726;DHT22;8983;53.156;17.960;2022-07-23T07:59:51;24.30;99.90
17726;DHT22;8983;53.156;17.960;2022-07-23T08:02:22;24.30;99.90
17726;DHT22;8983;53.156;17.960;2022-07-23T08:04:50;24.40;99.90
17726;DHT22;8983;53.156;17.960;2022-07-23T08:07:19;24.50;99.90
17726;DHT22;8983;53.156;17.960;2022-07-23T08:09:47;24.60;99.90
17726;DHT22;8983;53.156;17.960;2022-07-23T08:12:15;24.60;99.90
17726;DHT22;8983;53.156;17.960;2022-07-23T08:14:44;24.60;99.90
17726;DHT22;8983;53.156;17.960;2022-07-23T08:17:12;24.70;99.90
17726;DHT22;8983;53.156;17.960;2022-07-23T08:19:41;24.70;99.90
17726;DHT22;8983;53.156;17.960;2022-07-23T08:22:09;24.80;99.90
17726;DHT22;8983;53.156;17.960;2022-07-23T08:24:37;24.80;99.90
17726;DHT22;8983;53.156;17.960;2022-07-23T08:27:05;24.90;99.90
17726;DHT22;8983;53.156;17.960;2022-07-23T08:29:33;24.90;99.90
17726;DHT22;8983;53.156;17.960;2022-07-23T08:32:03;25.00;99.90
17726;DHT22;8983;53.156;17.960;2022-07-23T08:34:51;25.10;99.90
17726;DHT22;8983;53.156;17.960;2022-07-23T08:37:19;25.20;99.90
17726;DHT22;8983;53.156;17.960;2022-07-23T08:39:47;25.40;99.90
17726;DHT22;8983;53.156;17.960;2022-07-23T08:42:16;25.60;99.90
17726;DHT22;8983;53.156;17.960;2022-07-23T08:44:45;25.80;99.90
17726;DHT22;8983;53.156;17.960;2022-07-23T08:47:15;26.00;99.90
17726;DHT22;8983;53.156;17.960;2022-07-23T08:49:44;26.20;99.90
17726;DHT22;8983;53.156;17.960;2022-07-23T08:52:13;26.20;99.90
17726;DHT22;8983;53.156;17.960;2022-07-23T08:54:42;26.20;99.90
17726;DHT22;8983;53.156;17.960;2022-07-23T08:57:10;26.20;99.90
17726;DHT22;8983;53.156;17.960;2022-07-23T08:59:38;26.20;99.90
17726;DHT22;8983;53.156;17.960;2022-07-23T09:02:07;26.30;99.90
17726;DHT22;8983;53.156;17.960;2022-07-23T09:04:36;26.20;99.90
17726;DHT22;8983;53.156;17.960;2022-07-23T09:07:04;26.20;99.90
17726;DHT22;8983;53.156;17.960;2022-07-23T09:09:33;26.20;99.90
17726;DHT22;8983;53.156;17.960;2022-07-23T09:12:06;26.10;99.90
17726;DHT22;8983;53.156;17.960;2022-07-23T09:14:39;26.00;99.90
17726;DHT22;8983;53.156;17.960;2022-07-23T09:17:11;25.90;99.90
17726;DHT22;8983;53.156;17.960;2022-07-23T09:19:42;25.70;99.90
17726;DHT22;8983;53.156;17.960;2022-07-23T09:22:20;25.60;99.90
17726;DHT22;8983;53.156;17.960;2022-07-23T09:25:08;25.50;99.90
17726;DHT22;8983;53.156;17.960;2022-07-23T09:27:52;25.30;99.90
17726;DHT22;8983;53.156;17.960;2022-07-23T09:30:22;25.20;99.90
17726;DHT22;8983;53.156;17.960;2022-07-23T09:33:08;25.10;99.90
17726;DHT22;8983;53.156;17.960;2022-07-23T09:35:51;25.00;99.90
17726;DHT22;8983;53.156;17.960;2022-07-23T09:38:21;24.80;99.90
17726;DHT22;8983;53.156;17.960;2022-07-23T09:41:07;24.50;99.90
17726;DHT22;8983;53.156;17.960;2022-07-23T09:43:35;24.00;99.90
17726;DHT22;8983;53.156;17.960;2022-07-23T09:46:20;23.40;99.90
17726;DHT22;8983;53.156;17.960;2022-07-23T09:48:50;23.10;99.90
17726;DHT22;8983;53.156;17.960;2022-07-23T09:51:20;22.80;99.90
17726;DHT22;8983;53.156;17.960;2022-07-23T09:53:53;22.70;99.90
17726;DHT22;8983;53.156;17.960;2022-07-23T09:56:21;22.80;99.90
17726;DHT22;8983;53.156;17.960;2022-07-23T09:58:53;22.80;99.90
17726;DHT22;8983;53.156;17.960;2022-07-23T10:01:31;22.90;99.90
17726;DHT22;8983;53.156;17.960;2022-07-23T10:03:59;22.90;99.90
17726;DHT22;8983;53.156;17.960;2022-07-23T10:06:31;22.90;99.90
17726;DHT22;8983;53.156;17.960;2022-07-23T10:09:00;22.90;99.90
17726;DHT22;8983;53.156;17.960;2022-07-23T10:11:30;22.90;99.90
17726;DHT22;8983;53.156;17.960;2022-07-23T10:13:59;22.80;99.90
17726;DHT22;8983;53.156;17.960;2022-07-23T10:16:28;22.70;99.90
17726;DHT22;8983;53.156;17.960;2022-07-23T10:18:56;22.40;99.90
17726;DHT22;8983;53.156;17.960;2022-07-23T10:21:27;22.00;99.90
17726;DHT22;8983;53.156;17.960;2022-07-23T10:24:08;21.80;99.90
17726;DHT22;8983;53.156;17.960;2022-07-23T10:26:42;22.00;99.90
17726;DHT22;8983;53.156;17.960;2022-07-23T10:29:21;22.20;99.90
17726;DHT22;8983;53.156;17.960;2022-07-23T10:31:56;22.30;99.90
17726;DHT22;8983;53.156;17.960;2022-07-23T10:34:38;22.50;99.90
17726;DHT22;8983;53.156;17.960;2022-07-23T10:37:14;22.50;99.90
17726;DHT22;8983;53.156;17.960;2022-07-23T10:40:09;22.50;99.90
17726;DHT22;8983;53.156;17.960;2022-07-23T10:42:38;22.60;99.90
17726;DHT22;8983;53.156;17.960;2022-07-23T10:45:24;22.60;99.90
17726;DHT22;8983;53.156;17.960;2022-07-23T10:47:53;22.70;99.90
17726;DHT22;8983;53.156;17.960;2022-07-23T10:50:23;22.70;99.90
17726;DHT22;8983;53.156;17.960;2022-07-23T10:53:16;22.80;99.90
17726;DHT22;8983;53.156;17.960;2022-07-23T10:55:49;22.80;99.90
17726;DHT22;8983;53.156;17.960;2022-07-23T10:58:23;22.80;99.90
17726;DHT22;8983;53.156;17.960;2022-07-23T11:00:51;22.80;99.90
17726;DHT22;8983;53.156;17.960;2022-07-23T11:03:31;22.90;99.90
17726;DHT22;8983;53.156;17.960;2022-07-23T11:06:05;22.90;99.90
17726;DHT22;8983;53.156;17.960;2022-07-23T11:08:33;22.90;99.90
17726;DHT22;8983;53.156;17.960;2022-07-23T11:11:10;22.90;99.90
17726;DHT22;8983;53.156;17.960;2022-07-23T11:13:40;22.90;99.90
17726;DHT22;8983;53.156;17.960;2022-07-23T11:16:17;23.00;99.90
17726;DHT22;8983;53.156;17.960;2022-07-23T11:18:57;23.20;99.90
17726;DHT22;8983;53.156;17.960;2022-07-23T11:21:45;23.30;99.90
17726;DHT22;8983;53.156;17.960;2022-07-23T11:24:17;23.50;99.90
17726;DHT22;8983;53.156;17.960;2022-07-23T11:27:01;23.60;99.90
17726;DHT22;8983;53.156;17.960;2022-07-23T11:29:44;23.80;99.90
17726;DHT22;8983;53.156;17.960;2022-07-23T11:32:31;23.90;99.90
17726;DHT22;8983;53.156;17.960;2022-07-23T11:35:02;24.00;99.90
17726;DHT22;8983;53.156;17.960;2022-07-23T11:37:36;24.00;99.90
17726;DHT22;8983;53.156;17.960;2022-07-23T11:40:07;24.10;99.90
17726;DHT22;8983;53.156;17.960;2022-07-23T11:42:38;24.10;99.90
17726;DHT22;8983;53.156;17.960;2022-07-23T11:45:07;24.10;99.90
17726;DHT22;8983;53.156;17.960;2022-07-23T11:47:36;24.20;99.90
17726;DHT22;8983;53.156;17.960;2022-07-23T11:50:06;24.30;99.90
17726;DHT22;8983;53.156;17.960;2022-07-23T11:52:34;24.40;99.90
17726;DHT22;8983;53.156;17.960;2022-07-23T11:55:04;24.40;99.90
17726;DHT22;8983;53.156;17.960;2022-07-23T11:57:35;24.30;99.90
17726;DHT22;8983;53.156;17.960;2022-07-23T12:00:07;24.40;99.90
17726;DHT22;8983;53.156;17.960;2022-07-23T12:02:38;24.50;99.90
17726;DHT22;8983;53.156;17.960;2022-07-23T12:05:07;24.50;99.90
17726;DHT22;8983;53.156;17.960;2022-07-23T12:07:38;24.50;99.90
17726;DHT22;8983;53.156;17.960;2022-07-23T12:10:10;24.50;99.90
17726;DHT22;8983;53.156;17.960;2022-07-23T12:12:40;24.50;99.90
17726;DHT22;8983;53.156;17.960;2022-07-23T12:15:11;24.50;99.90
17726;DHT22;8983;53.156;17.960;2022-07-23T12:17:41;24.50;99.90
17726;DHT22;8983;53.156;17.960;2022-07-23T12:20:20;24.40;99.90
17726;DHT22;8983;53.156;17.960;2022-07-23T12:22:50;24.30;99.90
17726;DHT22;8983;53.156;17.960;2022-07-23T12:25:20;24.20;99.90
17726;DHT22;8983;53.156;17.960;2022-07-23T12:27:59;24.10;99.90
17726;DHT22;8983;53.156;17.960;2022-07-23T12:30:32;24.00;99.90
17726;DHT22;8983;53.156;17.960;2022-07-23T12:33:01;23.90;99.90
17726;DHT22;8983;53.156;17.960;2022-07-23T12:35:33;23.80;99.90
17726;DHT22;8983;53.156;17.960;2022-07-23T12:38:03;23.70;99.90
17726;DHT22;8983;53.156;17.960;2022-07-23T12:40:33;23.60;99.90
17726;DHT22;8983;53.156;17.960;2022-07-23T12:43:04;23.60;99.90
17726;DHT22;8983;53.156;17.960;2022-07-23T12:45:46;23.60;99.90
17726;DHT22;8983;53.156;17.960;2022-07-23T12:48:19;23.50;99.90
17726;DHT22;8983;53.156;17.960;2022-07-23T12:50:58;23.50;99.90
17726;DHT22;8983;53.156;17.960;2022-07-23T12:53:28;23.50;99.90
17726;DHT22;8983;53.156;17.960;2022-07-23T12:56:00;23.50;99.90
17726;DHT22;8983;53.156;17.960;2022-07-23T12:58:47;23.50;99.90
17726;DHT22;8983;53.156;17.960;2022-07-23T13:01:30;23.50;99.90
17726;DHT22;8983;53.156;17.960;2022-07-23T13:04:03;23.50;99.90
17726;DHT22;8983;53.156;17.960;2022-07-23T13:06:40;23.50;99.90
17726;DHT22;8983;53.156;17.960;2022-07-23T13:09:12;23.50;99.90
17726;DHT22;8983;53.156;17.960;2022-07-23T13:11:41;23.40;99.90
17726;DHT22;8983;53.156;17.960;2022-07-23T13:14:11;23.40;99.90
17726;DHT22;8983;53.156;17.960;2022-07-23T13:16:41;23.30;99.90
17726;DHT22;8983;53.156;17.960;2022-07-23T13:19:09;23.40;99.90
17726;DHT22;8983;53.156;17.960;2022-07-23T13:21:39;23.40;99.90
17726;DHT22;8983;53.156;17.960;2022-07-23T13:24:09;23.40;99.90
17726;DHT22;8983;53.156;17.960;2022-07-23T13:26:39;23.30;99.90
17726;DHT22;8983;53.156;17.960;2022-07-23T13:29:07;23.20;99.90
17726;DHT22;8983;53.156;17.960;2022-07-23T13:31:37;23.10;99.90
17726;DHT22;8983;53.156;17.960;2022-07-23T13:34:07;23.00;99.90
17726;DHT22;8983;53.156;17.960;2022-07-23T13:36:35;22.90;99.90
17726;DHT22;8983;53.156;17.960;2022-07-23T13:39:04;22.90;99.90
17726;DHT22;8983;53.156;17.960;2022-07-23T13:41:35;22.80;99.90
17726;DHT22;8983;53.156;17.960;2022-07-23T13:44:04;22.80;99.90
17726;DHT22;8983;53.156;17.960;2022-07-23T13:46:33;23.00;99.90
17726;DHT22;8983;53.156;17.960;2022-07-23T13:49:01;23.10;99.90
17726;DHT22;8983;53.156;17.960;2022-07-23T13:51:34;23.30;99.90
17726;DHT22;8983;53.156;17.960;2022-07-23T13:54:03;23.30;99.90
17726;DHT22;8983;53.156;17.960;2022-07-23T13:56:34;23.40;99.90
17726;DHT22;8983;53.156;17.960;2022-07-23T13:59:03;23.40;99.90
17726;DHT22;8983;53.156;17.960;2022-07-23T14:01:32;23.50;99.90
17726;DHT22;8983;53.156;17.960;2022-07-23T14:04:21;23.50;99.90
17726;DHT22;8983;53.156;17.960;2022-07-23T14:06:50;23.60;99.90
17726;DHT22;8983;53.156;17.960;2022-07-23T14:09:20;23.70;99.90
17726;DHT22;8983;53.156;17.960;2022-07-23T14:11:51;23.70;99.90
17726;DHT22;8983;53.156;17.960;2022-07-23T14:14:19;23.70;99.90
17726;DHT22;8983;53.156;17.960;2022-07-23T14:16:47;23.70;99.90
17726;DHT22;8983;53.156;17.960;2022-07-23T14:19:16;23.80;99.90
17726;DHT22;8983;53.156;17.960;2022-07-23T14:21:45;24.00;99.90
17726;DHT22;8983;53.156;17.960;2022-07-23T14:24:16;24.30;99.90
17726;DHT22;8983;53.156;17.960;2022-07-23T14:26:47;24.50;99.90
17726;DHT22;8983;53.156;17.960;2022-07-23T14:29:15;24.70;99.90
17726;DHT22;8983;53.156;17.960;2022-07-23T14:31:45;24.90;99.90
17726;DHT22;8983;53.156;17.960;2022-07-23T14:34:13;24.90;99.90
17726;DHT22;8983;53.156;17.960;2022-07-23T14:36:41;25.00;99.90
17726;DHT22;8983;53.156;17.960;2022-07-23T14:39:10;25.00;99.90
17726;DHT22;8983;53.156;17.960;2022-07-23T14:41:40;25.00;99.90
17726;DHT22;8983;53.156;17.960;2022-07-23T14:44:08;25.00;99.90
17726;DHT22;8983;53.156;17.960;2022-07-23T14:46:36;25.10;99.90
17726;DHT22;8983;53.156;17.960;2022-07-23T14:49:05;25.20;99.90
17726;DHT22;8983;53.156;17.960;2022-07-23T14:51:34;25.40;99.90
17726;DHT22;8983;53.156;17.960;2022-07-23T14:54:03;25.50;99.90
17726;DHT22;8983;53.156;17.960;2022-07-23T14:56:31;25.60;99.90
17726;DHT22;8983;53.156;17.960;2022-07-23T14:59:02;25.60;99.90
17726;DHT22;8983;53.156;17.960;2022-07-23T15:01:31;25.50;99.90
17726;DHT22;8983;53.156;17.960;2022-07-23T15:04:01;25.60;99.90
17726;DHT22;8983;53.156;17.960;2022-07-23T15:06:49;25.80;99.90
17726;DHT22;8983;53.156;17.960;2022-07-23T15:09:17;25.90;99.90
17726;DHT22;8983;53.156;17.960;2022-07-23T15:11:46;25.90;99.90
17726;DHT22;8983;53.156;17.960;2022-07-23T15:14:15;25.90;99.90
17726;DHT22;8983;53.156;17.960;2022-07-23T15:16:57;25.90;99.90
17726;DHT22;8983;53.156;17.960;2022-07-23T15:19:25;25.80;99.90
17726;DHT22;8983;53.156;17.960;2022-07-23T15:21:56;25.80;99.90
17726;DHT22;8983;53.156;17.960;2022-07-23T15:24:27;25.70;99.90
17726;DHT22;8983;53.156;17.960;2022-07-23T15:26:55;25.70;99.90
17726;DHT22;8983;53.156;17.960;2022-07-23T15:29:25;25.80;99.90
17726;DHT22;8983;53.156;17.960;2022-07-23T15:31:54;25.80;99.90
17726;DHT22;8983;53.156;17.960;2022-07-23T15:34:24;25.70;99.90
17726;DHT22;8983;53.156;17.960;2022-07-23T15:36:52;25.60;99.90
17726;DHT22;8983;53.156;17.960;2022-07-23T15:39:21;25.60;99.90
17726;DHT22;8983;53.156;17.960;2022-07-23T15:41:49;25.50;99.90
17726;DHT22;8983;53.156;17.960;2022-07-23T15:44:17;25.60;99.90
17726;DHT22;8983;53.156;17.960;2022-07-23T15:46:57;25.60;99.90
17726;DHT22;8983;53.156;17.960;2022-07-23T15:49:25;25.70;99.90